Bond, Illinois
Current Conditions -  °F | °C
As of 9:53 AM on Saturday 22 Nov 2014 (Local Time) from KLWV Reporting Station
Overcast Overcast  
Wind Chill: 57°   Ceiling: 7000
Heat Index: 57°   Visibility: 10mi
Dew Point: 43°   Wind: 21mph
Humidity: 59%   Direction: 200°SSW
Pressure: 30.17"   Gusts: 28mph
Location:  38.7501°N, 87.6141°W
Report Text: KLWV 221553Z AUTO 20018G24KT 10SM FEW050 OVC070 14/06 A3017 RMK AO2 SLP219 T01390061
Loading
Personal Weather Stations






























Interactive Weather Map New forecast layout! Learn more

10-Day Weather Forecast

Advertisements
Track Severe Weather on mobile